地図

経路データ

SID SEASON NUMBER BASIN SUBBASIN NAME ISO_TIME NATURE LAT LON WMO_WIND WMO_PRES WMO_AGENCY TRACK_TYPE DIST2LAND LANDFALL IFLAG USA_AGENCY USA_ATCF_ID USA_LAT USA_LON USA_RECORD USA_STATUS USA_WIND USA_PRES USA_SSHS USA_R34_NE USA_R34_SE USA_R34_SW USA_R34_NW USA_R50_NE USA_R50_SE USA_R50_SW USA_R50_NW USA_R64_NE USA_R64_SE USA_R64_SW USA_R64_NW USA_POCI USA_ROCI USA_RMW USA_EYE TOKYO_LAT TOKYO_LON TOKYO_GRADE TOKYO_WIND TOKYO_PRES TOKYO_R50_DIR TOKYO_R50_LONG TOKYO_R50_SHORT TOKYO_R30_DIR TOKYO_R30_LONG TOKYO_R30_SHORT TOKYO_LAND CMA_LAT CMA_LON CMA_CAT CMA_WIND CMA_PRES HKO_LAT HKO_LON HKO_CAT HKO_WIND HKO_PRES NEWDELHI_LAT NEWDELHI_LON NEWDELHI_GRADE NEWDELHI_WIND NEWDELHI_PRES NEWDELHI_CI NEWDELHI_DP NEWDELHI_POCI REUNION_LAT REUNION_LON REUNION_TYPE REUNION_WIND REUNION_PRES REUNION_TNUM REUNION_CI REUNION_RMW REUNION_R34_NE REUNION_R34_SE REUNION_R34_SW REUNION_R34_NW REUNION_R50_NE REUNION_R50_SE REUNION_R50_SW REUNION_R50_NW REUNION_R64_NE REUNION_R64_SE REUNION_R64_SW REUNION_R64_NW BOM_LAT BOM_LON BOM_TYPE BOM_WIND BOM_PRES BOM_TNUM BOM_CI BOM_RMW BOM_R34_NE BOM_R34_SE BOM_R34_SW BOM_R34_NW BOM_R50_NE BOM_R50_SE BOM_R50_SW BOM_R50_NW BOM_R64_NE BOM_R64_SE BOM_R64_SW BOM_R64_NW BOM_ROCI BOM_POCI BOM_EYE BOM_POS_METHOD BOM_PRES_METHOD NADI_LAT NADI_LON NADI_CAT NADI_WIND NADI_PRES WELLINGTON_LAT WELLINGTON_LON WELLINGTON_WIND WELLINGTON_PRES DS824_LAT DS824_LON DS824_STAGE DS824_WIND DS824_PRES TD9636_LAT TD9636_LON TD9636_STAGE TD9636_WIND TD9636_PRES TD9635_LAT TD9635_LON TD9635_WIND TD9635_PRES TD9635_ROCI NEUMANN_LAT NEUMANN_LON NEUMANN_CLASS NEUMANN_WIND NEUMANN_PRES MLC_LAT MLC_LON MLC_CLASS MLC_WIND MLC_PRES USA_GUST BOM_GUST BOM_GUST_PER REUNION_GUST REUNION_GUST_PER USA_SEAHGT USA_SEARAD_NE USA_SEARAD_SE USA_SEARAD_SW USA_SEARAD_NW STORM_SPEED STORM_DIR
2017254N16251 2017 75 EP MM OTIS 2017-09-11 06:00:00 TS 16.4000 -108.600 25 1009 hurdat_epa main 507 507 O_____________ hurdat_epa EP152017 16.4000 -108.600 TD 25 1009 -1 1012 120 30 13 276
2017254N16251 2017 75 EP MM OTIS 2017-09-11 09:00:00 TS 16.4679 -109.290 main 553 553 P_____________ EP152017 16.4679 -109.290 TD 25 1008 -1 1011 135 30 13 274
2017254N16251 2017 75 EP MM OTIS 2017-09-11 12:00:00 TS 16.5000 -110.000 25 1007 hurdat_epa main 612 612 O_____________ hurdat_epa EP152017 16.5000 -110.000 TD 25 1007 -1 1010 150 30 14 270
2017254N16251 2017 75 EP MM OTIS 2017-09-11 15:00:00 TS 16.4723 -110.743 main 673 673 P_____________ EP152017 16.4723 -110.743 TD 25 1006 -1 1009 135 30 14 266
2017254N16251 2017 75 EP MM OTIS 2017-09-11 18:00:00 TS 16.4000 -111.500 25 1006 hurdat_epa main 743 743 O_____________ hurdat_epa EP152017 16.4000 -111.500 TD 25 1006 -1 1009 120 30 35 15 264
2017254N16251 2017 75 EP MM OTIS 2017-09-11 21:00:00 TS 16.3073 -112.258 main 776 776 P_____________ EP152017 16.3073 -112.258 TD 25 1006 -1 1009 145 30 15 262
2017254N16251 2017 75 EP MM OTIS 2017-09-12 00:00:00 TS 16.2000 -113.000 25 1006 hurdat_epa main 812 812 O_____________ hurdat_epa EP152017 16.2000 -113.000 TD 25 1006 -1 1009 170 30 35 14 262
2017254N16251 2017 75 EP MM OTIS 2017-09-12 03:00:00 TS 16.0998 -113.715 main 853 853 P_____________ EP152017 16.0998 -113.715 TD 25 1006 -1 1009 170 30 14 262
2017254N16251 2017 75 EP MM OTIS 2017-09-12 06:00:00 TS 16.0000 -114.400 25 1006 hurdat_epa main 898 898 O_____________ hurdat_epa EP152017 16.0000 -114.400 TD 25 1006 -1 1009 170 30 35 13 262
2017254N16251 2017 75 EP MM OTIS 2017-09-12 09:00:00 TS 15.9073 -115.065 main 947 947 P_____________ EP152017 15.9073 -115.065 TD 27 1005 -1 1008 160 30 13 261
2017254N16251 2017 75 EP MM OTIS 2017-09-12 12:00:00 TS 15.8000 -115.700 30 1004 hurdat_epa main 993 993 O_____________ hurdat_epa EP152017 15.8000 -115.700 TD 30 1004 -1 1008 150 30 40 12 258
2017254N16251 2017 75 EP MM OTIS 2017-09-12 15:00:00 TS 15.6573 -116.315 main 1041 1041 P_____________ EP152017 15.6573 -116.315 TD 30 1004 -1 1008 150 30 12 255
2017254N16251 2017 75 EP MM OTIS 2017-09-12 18:00:00 TS 15.5000 -116.900 30 1004 hurdat_epa main 1099 1099 O_____________ hurdat_epa EP152017 15.5000 -116.900 TD 30 1004 -1 1008 150 30 40 11 254
2017254N16251 2017 75 EP MM OTIS 2017-09-12 21:00:00 TS 15.3498 -117.457 main 1158 1158 P_____________ EP152017 15.3498 -117.457 TD 32 1003 -1 1008 150 30 11 254
2017254N16251 2017 75 EP MM OTIS 2017-09-13 00:00:00 TS 15.2000 -118.000 35 1003 hurdat_epa main 1203 1203 O_____________ hurdat_epa EP152017 15.2000 -118.000 TS 35 1003 0 30 1008 150 30 40 11 253
2017254N16251 2017 75 EP MM OTIS 2017-09-13 03:00:00 TS 15.0274 -118.558 main 1263 1263 P_____________ EP152017 15.0274 -118.558 TS 35 1003 0 30 1008 150 30 11 254
2017254N16251 2017 75 EP MM OTIS 2017-09-13 06:00:00 TS 14.9000 -119.100 35 1003 hurdat_epa main 1309 1309 O_____________ hurdat_epa EP152017 14.9000 -119.100 TS 35 1003 0 30 1008 150 30 40 10 261
2017254N16251 2017 75 EP MM OTIS 2017-09-13 09:00:00 TS 14.8699 -119.622 main 1347 1347 P_____________ EP152017 14.8699 -119.622 TS 32 1003 -1 1008 150 30 10 270
2017254N16251 2017 75 EP MM OTIS 2017-09-13 12:00:00 TS 14.9000 -120.100 30 1004 hurdat_epa main 1378 1378 O_____________ hurdat_epa EP152017 14.9000 -120.100 TD 30 1004 -1 1008 150 30 40 9 275
2017254N16251 2017 75 EP MM OTIS 2017-09-13 15:00:00 TS 14.9424 -120.530 main 1403 1401 P_____________ EP152017 14.9424 -120.530 TD 30 1004 -1 1008 150 30 8 277
2017254N16251 2017 75 EP MM OTIS 2017-09-13 18:00:00 TS 15.0000 -120.900 30 1004 hurdat_epa main 1421 1421 O_____________ hurdat_epa EP152017 15.0000 -120.900 TD 30 1004 -1 1008 150 30 40 7 279
2017254N16251 2017 75 EP MM OTIS 2017-09-13 21:00:00 TS 15.0499 -121.215 main 1442 1433 P_____________ EP152017 15.0499 -121.215 TD 30 1004 -1 1008 150 30 6 280
2017254N16251 2017 75 EP MM OTIS 2017-09-14 00:00:00 TS 15.1000 -121.500 30 1004 hurdat_epa main 1454 1454 O_____________ hurdat_epa EP152017 15.1000 -121.500 TD 30 1004 -1 1008 150 30 40 6 280
2017254N16251 2017 75 EP MM OTIS 2017-09-14 03:00:00 TS 15.1500 -121.800 main 1475 1467 P_____________ EP152017 15.1500 -121.800 TD 30 1004 -1 1008 150 30 6 280
2017254N16251 2017 75 EP MM OTIS 2017-09-14 06:00:00 TS 15.2000 -122.100 30 1004 hurdat_epa main 1489 1489 O_____________ hurdat_epa EP152017 15.2000 -122.100 TD 30 1004 -1 1008 150 30 40 6 279
2017254N16251 2017 75 EP MM OTIS 2017-09-14 09:00:00 TS 15.2425 -122.400 main 1511 1510 P_____________ EP152017 15.2425 -122.400 TD 30 1004 -1 1008 150 30 6 280
2017254N16251 2017 75 EP MM OTIS 2017-09-14 12:00:00 TS 15.3000 -122.700 30 1005 hurdat_epa main 1525 1525 O_____________ hurdat_epa EP152017 15.3000 -122.700 TD 30 1005 -1 1009 150 30 40 6 285
2017254N16251 2017 75 EP MM OTIS 2017-09-14 15:00:00 TS 15.3925 -123.000 main 1540 1540 P_____________ EP152017 15.3925 -123.000 TD 30 1005 -1 1009 150 30 6 289
2017254N16251 2017 75 EP MM OTIS 2017-09-14 18:00:00 TS 15.5000 -123.300 30 1005 hurdat_epa main 1555 1555 O_____________ hurdat_epa EP152017 15.5000 -123.300 TD 30 1005 -1 1009 150 30 40 6 289
2017254N16251 2017 75 EP MM OTIS 2017-09-14 21:00:00 TS 15.6000 -123.608 main 1571 1571 P_____________ EP152017 15.6000 -123.608 TD 30 1005 -1 1009 150 30 6 289
2017254N16251 2017 75 EP MM OTIS 2017-09-15 00:00:00 TS 15.7000 -123.900 30 1006 hurdat_epa main 1587 1587 O_____________ hurdat_epa EP152017 15.7000 -123.900 TD 30 1006 -1 1010 150 30 40 6 291
2017254N16251 2017 75 EP MM OTIS 2017-09-15 03:00:00 TS 15.8075 -124.165 main 1604 1604 P_____________ EP152017 15.8075 -124.165 TD 30 1006 -1 1010 150 30 5 293
2017254N16251 2017 75 EP MM OTIS 2017-09-15 06:00:00 TS 15.9000 -124.400 30 1006 hurdat_epa main 1613 1613 O_____________ hurdat_epa EP152017 15.9000 -124.400 TD 30 1006 -1 1010 150 30 40 5 290
2017254N16251 2017 75 EP MM OTIS 2017-09-15 09:00:00 TS 15.9650 -124.608 main 1622 1622 P_____________ EP152017 15.9650 -124.608 TD 30 1006 -1 1010 165 30 4 285
2017254N16251 2017 75 EP MM OTIS 2017-09-15 12:00:00 TS 16.0000 -124.800 30 1007 hurdat_epa main 1639 1639 O_____________ hurdat_epa EP152017 16.0000 -124.800 TD 30 1007 -1 1011 180 30 40 4 277
2017254N16251 2017 75 EP MM OTIS 2017-09-15 15:00:00 TS 16.0150 -125.008 main 1655 1655 P_____________ EP152017 16.0150 -125.008 TD 30 1007 -1 1011 180 35 4 270
2017254N16251 2017 75 EP MM OTIS 2017-09-15 18:00:00 TS 16.0000 -125.200 30 1007 hurdat_epa main 1672 1672 O_____________ hurdat_epa EP152017 16.0000 -125.200 TD 30 1007 -1 1011 180 40 40 3 260
2017254N16251 2017 75 EP MM OTIS 2017-09-15 21:00:00 TS 15.9575 -125.350 main 1689 1689 P_____________ EP152017 15.9575 -125.350 TD 27 1007 -1 1011 180 40 3 251
2017254N16251 2017 75 EP MM OTIS 2017-09-16 00:00:00 TS 15.9000 -125.500 25 1008 hurdat_epa main 1704 1704 O_____________ hurdat_epa EP152017 15.9000 -125.500 TD 25 1008 -1 1011 180 40 40 3 250
2017254N16251 2017 75 EP MM OTIS 2017-09-16 03:00:00 TS 15.8425 -125.685 main 1727 1727 P_____________ EP152017 15.8425 -125.685 TD 25 1008 -1 1011 180 40 4 255
2017254N16251 2017 75 EP MM OTIS 2017-09-16 06:00:00 TS 15.8000 -125.900 25 1008 hurdat_epa main 1740 1740 O_____________ hurdat_epa EP152017 15.8000 -125.900 TD 25 1008 -1 1011 180 40 40 5 264
2017254N16251 2017 75 EP MM OTIS 2017-09-16 09:00:00 TS 15.7925 -126.150 main 1753 1753 P_____________ EP152017 15.7925 -126.150 TD 27 1007 -1 1011 180 40 5 270
2017254N16251 2017 75 EP MM OTIS 2017-09-16 12:00:00 TS 15.8000 -126.400 30 1007 hurdat_epa main 1774 1774 O_____________ hurdat_epa EP152017 15.8000 -126.400 TD 30 1007 -1 1011 180 40 40 12 60 60 30 30 4 271
2017254N16251 2017 75 EP MM OTIS 2017-09-16 15:00:00 TS 15.8000 -126.615 main 1787 1787 P_____________ EP152017 15.8000 -126.615 TD 32 1006 -1 1011 180 35 12 60 4 270
2017254N16251 2017 75 EP MM OTIS 2017-09-16 18:00:00 TS 15.8000 -126.800 35 1006 hurdat_epa main 1801 1801 O_____________ hurdat_epa EP152017 15.8000 -126.800 TS 35 1006 0 30 30 1011 180 30 40 12 60 3 267
2017254N16251 2017 75 EP MM OTIS 2017-09-16 21:00:00 TS 15.7850 -126.965 main 1815 1815 P_____________ EP152017 15.7850 -126.965 TS 37 1005 0 30 30 1011 180 30 12 60 3 270
2017254N16251 2017 75 EP MM OTIS 2017-09-17 00:00:00 TS 15.8000 -127.100 40 1005 hurdat_epa main 1822 1821 O_____________ hurdat_epa EP152017 15.8000 -127.100 TS 40 1005 0 30 30 30 1011 180 30 50 12 60 60 3 290
2017254N16251 2017 75 EP MM OTIS 2017-09-17 03:00:00 TS 15.8775 -127.230 main 1821 1819 P_____________ EP152017 15.8775 -127.230 TS 45 1003 0 35 35 35 1011 180 30 12 60 60 3 316
2017254N16251 2017 75 EP MM OTIS 2017-09-17 06:00:00 TS 16.0000 -127.300 50 1001 hurdat_epa main 1819 1811 O_____________ hurdat_epa EP152017 16.0000 -127.300 TS 50 1001 0 40 40 30 40 20 1011 180 30 55 12 60 60 3 351
2017254N16251 2017 75 EP MM OTIS 2017-09-17 09:00:00 TS 16.1275 -127.273 main 1811 1787 P_____________ EP152017 16.1275 -127.273 TS 57 996 0 40 40 30 40 20 1011 180 25 12 60 60 3 17
2017254N16251 2017 75 EP MM OTIS 2017-09-17 12:00:00 TS 16.3000 -127.200 65 991 hurdat_epa main 1787 1764 O_____________ hurdat_epa EP152017 16.3000 -127.200 HU 65 991 1 40 40 30 40 20 20 20 10 1011 180 20 60 12 60 60 4 19
2017254N16251 2017 75 EP MM OTIS 2017-09-17 15:00:00 TS 16.5125 -127.135 main 1764 1739 P_____________ EP152017 16.5125 -127.135 HU 72 985 1 50 50 35 45 25 25 20 12 1011 180 20 12 60 60 5 11
2017254N16251 2017 75 EP MM OTIS 2017-09-17 18:00:00 TS 16.8000 -127.100 80 980 hurdat_epa main 1739 1707 O_____________ hurdat_epa EP152017 16.8000 -127.100 HU 80 980 1 60 60 40 50 30 30 20 20 15 10 10 10 1011 180 20 75 12 60 60 60 60 7 1
2017254N16251 2017 75 EP MM OTIS 2017-09-17 21:00:00 TS 17.1850 -127.135 main 1707 1683 P_____________ EP152017 17.1850 -127.135 HU 90 972 2 60 60 40 50 30 30 20 20 15 10 10 10 1011 180 15 12 60 75 75 90 8 353
2017254N16251 2017 75 EP MM OTIS 2017-09-18 00:00:00 TS 17.6000 -127.200 100 965 hurdat_epa main 1683 1652 O_____________ hurdat_epa EP152017 17.6000 -127.200 HU 100 965 3 60 60 40 50 30 30 20 20 15 10 10 10 1011 180 10 120 12 60 90 90 120 8 352
2017254N16251 2017 75 EP MM OTIS 2017-09-18 03:00:00 TS 17.9800 -127.250 main 1660 1637 P_____________ EP152017 17.9800 -127.250 HU 95 969 2 60 60 40 50 30 30 20 20 15 10 10 10 1011 180 10 12 60 90 90 105 7 352
2017254N16251 2017 75 EP MM OTIS 2017-09-18 06:00:00 TS 18.3000 -127.300 90 973 hurdat_epa main 1637 1622 O_____________ hurdat_epa EP152017 18.3000 -127.300 HU 90 973 2 60 60 40 50 30 30 20 20 15 10 10 10 1011 180 10 110 12 60 90 90 90 6 350
2017254N16251 2017 75 EP MM OTIS 2017-09-18 09:00:00 TS 18.5300 -127.350 main 1630 1615 P_____________ EP152017 18.5300 -127.350 HU 77 982 1 60 60 40 50 30 30 15 1011 180 10 12 60 75 90 90 4 347
2017254N16251 2017 75 EP MM OTIS 2017-09-18 12:00:00 TS 18.7000 -127.400 65 991 hurdat_epa main 1615 1601 O_____________ hurdat_epa EP152017 18.7000 -127.400 HU 65 991 1 60 60 40 50 30 30 15 1011 180 10 75 12 60 60 90 90 4 344
2017254N16251 2017 75 EP MM OTIS 2017-09-18 15:00:00 TS 18.8725 -127.450 main 1609 1602 P_____________ EP152017 18.8725 -127.450 HU 55 996 0 60 60 50 15 15 1011 180 10 12 75 60 75 90 3 343
2017254N16251 2017 75 EP MM OTIS 2017-09-18 18:00:00 TS 19.0000 -127.500 45 1002 hurdat_epa main 1602 1594 O_____________ hurdat_epa EP152017 19.0000 -127.500 TS 45 1002 0 60 60 50 1011 180 10 55 12 90 60 60 90 2 335
2017254N16251 2017 75 EP MM OTIS 2017-09-18 21:00:00 TS 19.0725 -127.543 main 1594 1594 P_____________ EP152017 19.0725 -127.543 TS 42 1003 0 60 60 50 1011 180 10 1 317
2017254N16251 2017 75 EP MM OTIS 2017-09-19 00:00:00 TS 19.1000 -127.600 40 1004 hurdat_epa main 1603 1603 O_____________ hurdat_epa EP152017 19.1000 -127.600 TS 40 1004 0 60 60 50 1011 180 10 45 1 290
2017254N16251 2017 75 EP MM OTIS 2017-09-19 03:00:00 TS 19.1150 -127.670 main 1611 1611 P_____________ EP152017 19.1150 -127.670 TS 37 1005 0 60 55 1011 180 10 2 270
2017254N16251 2017 75 EP MM OTIS 2017-09-19 06:00:00 TS 19.1000 -127.800 35 1006 hurdat_epa main 1619 1619 O_____________ hurdat_epa EP152017 19.1000 -127.800 TS 35 1006 0 60 60 1011 180 10 45 3 264
2017254N16251 2017 75 EP MM OTIS 2017-09-19 09:00:00 TS 19.0800 -128.027 main 1635 1635 P_____________ EP152017 19.0800 -128.027 TS 32 1006 -1 1011 165 12 5 258
2017254N16251 2017 75 EP MM OTIS 2017-09-19 12:00:00 DS 19.0000 -128.300 30 1007 hurdat_epa main 1667 1667 O_____________ hurdat_epa EP152017 19.0000 -128.300 LO 30 1007 -3 1011 150 15 40 5 243
2017254N16251 2017 75 EP MM OTIS 2017-09-19 15:00:00 DS 18.8299 -128.542 main 1697 1697 P_____________ EP152017 18.8299 -128.542 LO 30 1007 -3 1011 150 15 6 230
2017254N16251 2017 75 EP MM OTIS 2017-09-19 18:00:00 DS 18.6000 -128.800 30 1007 hurdat_epa main 1736 1736 O_____________ hurdat_epa EP152017 18.6000 -128.800 LO 30 1007 -3 1011 150 15 7 228
2017254N16251 2017 75 EP MM OTIS 2017-09-19 21:00:00 DS 18.3575 -129.100 main 1775 1775 P_____________ EP152017 18.3575 -129.100 LO 27 1007 -3 1011 150 15 8 229
2017254N16251 2017 75 EP MM OTIS 2017-09-20 00:00:00 DS 18.1000 -129.400 25 1008 hurdat_epa main 1820 1820 O_____________ hurdat_epa EP152017 18.1000 -129.400 LO 25 1008 -3 1011 150 15 7 226
2017254N16251 2017 75 EP MM OTIS 2017-09-20 03:00:00 DS 17.8499 -129.650 main 1858 1858 P_____________ EP152017 17.8499 -129.650 LO 25 1008 -3 1011 150 15 7 224
2017254N16251 2017 75 EP MM OTIS 2017-09-20 06:00:00 DS 17.6000 -129.900 25 1008 hurdat_epa main 1897 1897 O_____________ hurdat_epa EP152017 17.6000 -129.900 LO 25 1008 -3 1011 150 15 7 226
2017254N16251 2017 75 EP MM OTIS 2017-09-20 09:00:00 DS 17.3500 -130.192 main 1943 1943 P_____________ EP152017 17.3500 -130.192 LO 25 1008 -3 1011 150 15 8 229
2017254N16251 2017 75 EP MM OTIS 2017-09-20 12:00:00 DS 17.1000 -130.500 25 1008 hurdat_epa main 1981 1981 O_____________ hurdat_epa EP152017 17.1000 -130.500 LO 25 1008 -3 1011 150 15 8 229
2017254N16251 2017 75 EP MM OTIS 2017-09-20 15:00:00 DS 16.8500 -130.800 main 2027 2027 P_____________ EP152017 16.8500 -130.800 LO 25 1008 -3 1011 150 15 8 229
2017254N16251 2017 75 EP MM OTIS 2017-09-20 18:00:00 DS 16.6000 -131.100 25 1008 hurdat_epa main 2066 2066 O_____________ hurdat_epa EP152017 16.6000 -131.100 LO 25 1008 -3 1011 150 15 8 229
2017254N16251 2017 75 EP MM OTIS 2017-09-20 21:00:00 DS 16.3501 -131.400 main 2105 2105 P_____________ EP152017 16.3501 -131.400 LO 22 1008 -3 1011 150 15 8 229
2017254N16251 2017 75 EP MM OTIS 2017-09-21 00:00:00 DS 16.1000 -131.700 20 1009 hurdat_epa main 2151 O_____________ hurdat_epa EP152017 16.1000 -131.700 LO 20 1009 -3 1011 150 15 8 229

IBTrACS Databaseについて

本データベースは、米国NOAAが公開する1842年以降の世界の熱帯低気圧のベストトラックデータアーカイブInternational Best Track Archive for Climate Stewardship (IBTrACS)を、ウェブで閲覧しやすい形式に変換したものです。

最終更新日:2021-10-19